sensor_id;sensor_type;location;lat;lon;timestamp;temperature;humidity
58517;DHT22;44308;50.810;0.284;2022-09-27T00:01:04;10.60;99.90
58517;DHT22;44308;50.810;0.284;2022-09-27T00:03:31;10.60;99.90
58517;DHT22;44308;50.810;0.284;2022-09-27T00:06:02;10.60;99.90
58517;DHT22;44308;50.810;0.284;2022-09-27T00:08:30;10.60;99.90
58517;DHT22;44308;50.810;0.284;2022-09-27T00:11:04;10.60;99.90
58517;DHT22;44308;50.810;0.284;2022-09-27T00:13:30;10.60;99.90
58517;DHT22;44308;50.810;0.284;2022-09-27T00:15:58;10.50;99.90
58517;DHT22;44308;50.810;0.284;2022-09-27T00:18:23;10.50;99.90
58517;DHT22;44308;50.810;0.284;2022-09-27T00:20:49;10.50;99.90
58517;DHT22;44308;50.810;0.284;2022-09-27T00:23:15;10.40;99.90
58517;DHT22;44308;50.810;0.284;2022-09-27T00:25:42;10.50;99.90
58517;DHT22;44308;50.810;0.284;2022-09-27T00:28:08;10.50;99.90
58517;DHT22;44308;50.810;0.284;2022-09-27T00:30:34;10.40;99.90
58517;DHT22;44308;50.810;0.284;2022-09-27T00:32:59;10.40;99.90
58517;DHT22;44308;50.810;0.284;2022-09-27T00:35:25;10.50;99.90
58517;DHT22;44308;50.810;0.284;2022-09-27T00:37:51;10.40;99.90
58517;DHT22;44308;50.810;0.284;2022-09-27T00:40:17;10.40;99.90
58517;DHT22;44308;50.810;0.284;2022-09-27T00:42:42;10.40;99.90
58517;DHT22;44308;50.810;0.284;2022-09-27T00:45:14;10.50;99.90
58517;DHT22;44308;50.810;0.284;2022-09-27T00:50:36;10.50;99.90
58517;DHT22;44308;50.810;0.284;2022-09-27T00:53:22;10.50;99.90
58517;DHT22;44308;50.810;0.284;2022-09-27T00:56:14;10.50;99.90
58517;DHT22;44308;50.810;0.284;2022-09-27T00:58:41;10.50;99.90
58517;DHT22;44308;50.810;0.284;2022-09-27T01:01:08;10.50;99.90
58517;DHT22;44308;50.810;0.284;2022-09-27T01:03:55;10.40;99.90
58517;DHT22;44308;50.810;0.284;2022-09-27T01:06:23;10.40;99.90
58517;DHT22;44308;50.810;0.284;2022-09-27T01:08:49;10.50;99.90
58517;DHT22;44308;50.810;0.284;2022-09-27T01:17:02;10.40;99.90
58517;DHT22;44308;50.810;0.284;2022-09-27T01:22:56;10.30;99.90
58517;DHT22;44308;50.810;0.284;2022-09-27T01:25:32;10.40;99.90
58517;DHT22;44308;50.810;0.284;2022-09-27T01:44:58;10.10;99.90
58517;DHT22;44308;50.810;0.284;2022-09-27T01:47:54;10.00;99.90
58517;DHT22;44308;50.810;0.284;2022-09-27T01:50:28;10.00;99.90
58517;DHT22;44308;50.810;0.284;2022-09-27T01:55:50;10.00;99.90
58517;DHT22;44308;50.810;0.284;2022-09-27T01:58:28;9.90;99.90
58517;DHT22;44308;50.810;0.284;2022-09-27T02:00:54;9.90;99.90
58517;DHT22;44308;50.810;0.284;2022-09-27T02:03:27;10.00;99.90
58517;DHT22;44308;50.810;0.284;2022-09-27T02:06:19;10.00;99.90
58517;DHT22;44308;50.810;0.284;2022-09-27T02:08:52;10.00;99.90
58517;DHT22;44308;50.810;0.284;2022-09-27T02:11:19;10.00;99.90
58517;DHT22;44308;50.810;0.284;2022-09-27T02:13:51;9.90;99.90
58517;DHT22;44308;50.810;0.284;2022-09-27T02:19:08;9.90;99.90
58517;DHT22;44308;50.810;0.284;2022-09-27T02:21:58;9.80;99.90
58517;DHT22;44308;50.810;0.284;2022-09-27T02:24:40;9.80;99.90
58517;DHT22;44308;50.810;0.284;2022-09-27T02:27:17;9.80;99.90
58517;DHT22;44308;50.810;0.284;2022-09-27T02:29:51;9.80;99.90
58517;DHT22;44308;50.810;0.284;2022-09-27T02:32:17;9.70;99.90
58517;DHT22;44308;50.810;0.284;2022-09-27T02:34:45;9.60;99.90
58517;DHT22;44308;50.810;0.284;2022-09-27T02:37:12;9.60;99.90
58517;DHT22;44308;50.810;0.284;2022-09-27T02:39:38;9.60;99.90
58517;DHT22;44308;50.810;0.284;2022-09-27T02:42:04;9.60;99.90
58517;DHT22;44308;50.810;0.284;2022-09-27T02:44:32;9.60;99.90
58517;DHT22;44308;50.810;0.284;2022-09-27T02:50:13;9.70;99.90
58517;DHT22;44308;50.810;0.284;2022-09-27T02:59:00;9.60;99.90
58517;DHT22;44308;50.810;0.284;2022-09-27T03:06:57;9.60;99.90
58517;DHT22;44308;50.810;0.284;2022-09-27T03:09:28;9.60;99.90
58517;DHT22;44308;50.810;0.284;2022-09-27T03:11:54;9.60;99.90
58517;DHT22;44308;50.810;0.284;2022-09-27T03:14:20;9.60;99.90
58517;DHT22;44308;50.810;0.284;2022-09-27T03:16:46;9.50;99.90
58517;DHT22;44308;50.810;0.284;2022-09-27T03:19:11;9.50;99.90
58517;DHT22;44308;50.810;0.284;2022-09-27T03:21:37;9.50;99.90
58517;DHT22;44308;50.810;0.284;2022-09-27T03:24:03;9.50;99.90
58517;DHT22;44308;50.810;0.284;2022-09-27T03:26:29;9.40;99.90
58517;DHT22;44308;50.810;0.284;2022-09-27T03:28:55;9.50;99.90
58517;DHT22;44308;50.810;0.284;2022-09-27T03:31:20;9.40;99.90
58517;DHT22;44308;50.810;0.284;2022-09-27T03:33:46;9.50;99.90
58517;DHT22;44308;50.810;0.284;2022-09-27T03:36:13;9.50;99.90
58517;DHT22;44308;50.810;0.284;2022-09-27T03:38:39;9.50;99.90
58517;DHT22;44308;50.810;0.284;2022-09-27T03:41:04;9.50;99.90
58517;DHT22;44308;50.810;0.284;2022-09-27T03:43:30;9.50;99.90
58517;DHT22;44308;50.810;0.284;2022-09-27T03:46:15;9.50;99.90
58517;DHT22;44308;50.810;0.284;2022-09-27T03:48:41;9.50;99.90
58517;DHT22;44308;50.810;0.284;2022-09-27T03:51:07;9.50;99.90
58517;DHT22;44308;50.810;0.284;2022-09-27T03:53:33;9.50;99.90
58517;DHT22;44308;50.810;0.284;2022-09-27T03:56:00;9.50;99.90
58517;DHT22;44308;50.810;0.284;2022-09-27T03:58:25;9.50;99.90
58517;DHT22;44308;50.810;0.284;2022-09-27T04:00:51;9.50;99.90
58517;DHT22;44308;50.810;0.284;2022-09-27T04:03:17;9.50;99.90
58517;DHT22;44308;50.810;0.284;2022-09-27T04:05:44;9.50;99.90
58517;DHT22;44308;50.810;0.284;2022-09-27T04:08:10;9.50;99.90
58517;DHT22;44308;50.810;0.284;2022-09-27T04:10:36;9.60;99.90
58517;DHT22;44308;50.810;0.284;2022-09-27T04:13:03;9.60;99.90
58517;DHT22;44308;50.810;0.284;2022-09-27T04:15:30;9.60;99.90
58517;DHT22;44308;50.810;0.284;2022-09-27T04:17:56;9.60;99.90
58517;DHT22;44308;50.810;0.284;2022-09-27T04:20:21;9.60;99.90
58517;DHT22;44308;50.810;0.284;2022-09-27T04:22:47;9.70;99.90
58517;DHT22;44308;50.810;0.284;2022-09-27T04:25:13;9.60;99.90
58517;DHT22;44308;50.810;0.284;2022-09-27T04:27:43;9.60;99.90
58517;DHT22;44308;50.810;0.284;2022-09-27T04:30:10;9.70;99.90
58517;DHT22;44308;50.810;0.284;2022-09-27T04:32:40;9.60;99.90
58517;DHT22;44308;50.810;0.284;2022-09-27T04:35:25;9.60;99.90
58517;DHT22;44308;50.810;0.284;2022-09-27T04:38:09;9.60;99.90
58517;DHT22;44308;50.810;0.284;2022-09-27T04:40:35;9.60;99.90
58517;DHT22;44308;50.810;0.284;2022-09-27T04:43:01;9.60;99.90
58517;DHT22;44308;50.810;0.284;2022-09-27T04:45:31;9.50;99.90
58517;DHT22;44308;50.810;0.284;2022-09-27T04:47:56;9.50;99.90
58517;DHT22;44308;50.810;0.284;2022-09-27T04:50:22;9.50;99.90
58517;DHT22;44308;50.810;0.284;2022-09-27T04:52:52;9.40;99.90
58517;DHT22;44308;50.810;0.284;2022-09-27T04:55:19;9.40;99.90
58517;DHT22;44308;50.810;0.284;2022-09-27T04:57:46;9.40;99.90
58517;DHT22;44308;50.810;0.284;2022-09-27T05:00:12;9.40;99.90
58517;DHT22;44308;50.810;0.284;2022-09-27T05:02:38;9.40;99.90
58517;DHT22;44308;50.810;0.284;2022-09-27T05:05:04;9.40;99.90
58517;DHT22;44308;50.810;0.284;2022-09-27T05:07:33;9.40;99.90
58517;DHT22;44308;50.810;0.284;2022-09-27T05:09:59;9.40;99.90
58517;DHT22;44308;50.810;0.284;2022-09-27T05:12:25;9.40;99.90
58517;DHT22;44308;50.810;0.284;2022-09-27T05:15:12;9.50;99.90
58517;DHT22;44308;50.810;0.284;2022-09-27T05:17:37;9.60;99.90
58517;DHT22;44308;50.810;0.284;2022-09-27T05:20:03;9.60;99.90
58517;DHT22;44308;50.810;0.284;2022-09-27T05:22:29;9.60;99.90
58517;DHT22;44308;50.810;0.284;2022-09-27T05:24:55;9.60;99.90
58517;DHT22;44308;50.810;0.284;2022-09-27T05:27:21;9.60;99.90
58517;DHT22;44308;50.810;0.284;2022-09-27T05:29:47;9.70;99.90
58517;DHT22;44308;50.810;0.284;2022-09-27T05:32:13;9.60;99.90
58517;DHT22;44308;50.810;0.284;2022-09-27T05:34:39;9.70;99.90
58517;DHT22;44308;50.810;0.284;2022-09-27T05:37:06;9.70;99.90
58517;DHT22;44308;50.810;0.284;2022-09-27T05:39:32;9.70;99.90
58517;DHT22;44308;50.810;0.284;2022-09-27T05:41:58;9.70;99.90
58517;DHT22;44308;50.810;0.284;2022-09-27T05:44:23;9.80;99.90
58517;DHT22;44308;50.810;0.284;2022-09-27T05:46:50;9.70;99.90
58517;DHT22;44308;50.810;0.284;2022-09-27T05:49:16;9.70;99.90
58517;DHT22;44308;50.810;0.284;2022-09-27T05:51:42;9.70;99.90
58517;DHT22;44308;50.810;0.284;2022-09-27T05:56:57;9.70;99.90
58517;DHT22;44308;50.810;0.284;2022-09-27T05:59:26;9.70;99.90
58517;DHT22;44308;50.810;0.284;2022-09-27T06:01:52;9.70;99.90
58517;DHT22;44308;50.810;0.284;2022-09-27T06:04:38;9.80;99.90
58517;DHT22;44308;50.810;0.284;2022-09-27T06:07:04;9.80;99.90
58517;DHT22;44308;50.810;0.284;2022-09-27T06:09:29;9.90;99.90
58517;DHT22;44308;50.810;0.284;2022-09-27T06:11:55;9.90;99.90
58517;DHT22;44308;50.810;0.284;2022-09-27T06:18:13;9.90;99.90
58517;DHT22;44308;50.810;0.284;2022-09-27T06:20:40;10.00;99.90
58517;DHT22;44308;50.810;0.284;2022-09-27T06:23:13;10.00;99.90
58517;DHT22;44308;50.810;0.284;2022-09-27T06:28:46;10.10;99.90
58517;DHT22;44308;50.810;0.284;2022-09-27T06:31:12;10.10;99.90
58517;DHT22;44308;50.810;0.284;2022-09-27T06:33:38;10.10;99.90
58517;DHT22;44308;50.810;0.284;2022-09-27T06:36:25;10.20;99.90
58517;DHT22;44308;50.810;0.284;2022-09-27T06:38:51;10.20;99.90
58517;DHT22;44308;50.810;0.284;2022-09-27T06:41:16;10.30;99.90
58517;DHT22;44308;50.810;0.284;2022-09-27T06:43:42;10.60;99.90
58517;DHT22;44308;50.810;0.284;2022-09-27T06:46:09;10.60;99.90
58517;DHT22;44308;50.810;0.284;2022-09-27T06:48:35;10.60;99.90
58517;DHT22;44308;50.810;0.284;2022-09-27T06:51:04;10.60;99.90
58517;DHT22;44308;50.810;0.284;2022-09-27T06:53:30;10.60;99.90
58517;DHT22;44308;50.810;0.284;2022-09-27T06:56:15;10.70;99.90
58517;DHT22;44308;50.810;0.284;2022-09-27T06:58:41;10.60;99.90
58517;DHT22;44308;50.810;0.284;2022-09-27T07:01:28;10.70;99.90
58517;DHT22;44308;50.810;0.284;2022-09-27T07:03:54;10.80;99.90
58517;DHT22;44308;50.810;0.284;2022-09-27T07:06:21;10.90;99.90
58517;DHT22;44308;50.810;0.284;2022-09-27T07:08:49;11.00;99.90
58517;DHT22;44308;50.810;0.284;2022-09-27T07:11:16;11.10;99.90
58517;DHT22;44308;50.810;0.284;2022-09-27T07:13:42;11.20;99.90
58517;DHT22;44308;50.810;0.284;2022-09-27T07:16:17;11.30;99.90
58517;DHT22;44308;50.810;0.284;2022-09-27T07:18:43;11.40;99.90
58517;DHT22;44308;50.810;0.284;2022-09-27T07:21:09;11.60;99.90
58517;DHT22;44308;50.810;0.284;2022-09-27T07:23:35;12.20;99.90
58517;DHT22;44308;50.810;0.284;2022-09-27T07:29:08;12.10;99.90
58517;DHT22;44308;50.810;0.284;2022-09-27T07:31:33;11.90;99.90
58517;DHT22;44308;50.810;0.284;2022-09-27T07:33:59;11.90;99.90
58517;DHT22;44308;50.810;0.284;2022-09-27T07:36:24;12.00;99.90
58517;DHT22;44308;50.810;0.284;2022-09-27T07:38:50;12.30;99.90
58517;DHT22;44308;50.810;0.284;2022-09-27T07:41:16;12.90;99.90
58517;DHT22;44308;50.810;0.284;2022-09-27T07:43:42;13.30;99.90
58517;DHT22;44308;50.810;0.284;2022-09-27T07:46:11;13.50;99.90
58517;DHT22;44308;50.810;0.284;2022-09-27T07:48:38;13.40;99.90
58517;DHT22;44308;50.810;0.284;2022-09-27T07:51:03;13.20;99.90
58517;DHT22;44308;50.810;0.284;2022-09-27T07:53:32;13.30;99.90
58517;DHT22;44308;50.810;0.284;2022-09-27T07:55:58;13.20;99.90
58517;DHT22;44308;50.810;0.284;2022-09-27T07:58:23;13.10;99.90
58517;DHT22;44308;50.810;0.284;2022-09-27T08:00:49;13.00;99.90
58517;DHT22;44308;50.810;0.284;2022-09-27T08:03:16;13.10;99.90
58517;DHT22;44308;50.810;0.284;2022-09-27T08:05:44;13.10;99.90
58517;DHT22;44308;50.810;0.284;2022-09-27T08:08:12;13.10;99.90
58517;DHT22;44308;50.810;0.284;2022-09-27T08:10:38;13.10;99.90
58517;DHT22;44308;50.810;0.284;2022-09-27T08:13:06;13.10;99.90
58517;DHT22;44308;50.810;0.284;2022-09-27T08:15:33;13.10;99.90
58517;DHT22;44308;50.810;0.284;2022-09-27T08:18:01;13.00;99.90
58517;DHT22;44308;50.810;0.284;2022-09-27T08:20:27;13.10;99.90
58517;DHT22;44308;50.810;0.284;2022-09-27T08:22:52;13.20;99.90
58517;DHT22;44308;50.810;0.284;2022-09-27T08:25:18;13.30;99.90
58517;DHT22;44308;50.810;0.284;2022-09-27T08:27:54;13.40;99.90
58517;DHT22;44308;50.810;0.284;2022-09-27T08:30:21;13.60;99.90
58517;DHT22;44308;50.810;0.284;2022-09-27T08:32:46;13.70;99.90
58517;DHT22;44308;50.810;0.284;2022-09-27T08:35:12;13.60;99.90
58517;DHT22;44308;50.810;0.284;2022-09-27T08:37:40;13.60;99.90
58517;DHT22;44308;50.810;0.284;2022-09-27T08:40:06;13.60;99.90
58517;DHT22;44308;50.810;0.284;2022-09-27T08:42:45;13.60;99.90
58517;DHT22;44308;50.810;0.284;2022-09-27T08:45:15;13.70;99.90
58517;DHT22;44308;50.810;0.284;2022-09-27T08:47:53;14.00;99.90
58517;DHT22;44308;50.810;0.284;2022-09-27T08:50:40;14.00;99.90
58517;DHT22;44308;50.810;0.284;2022-09-27T08:55:47;14.30;99.90
58517;DHT22;44308;50.810;0.284;2022-09-27T09:00:53;16.00;99.90
58517;DHT22;44308;50.810;0.284;2022-09-27T09:03:23;16.40;99.90
58517;DHT22;44308;50.810;0.284;2022-09-27T09:06:05;17.10;99.90
58517;DHT22;44308;50.810;0.284;2022-09-27T09:14:01;18.30;99.90
58517;DHT22;44308;50.810;0.284;2022-09-27T09:16:51;18.10;99.90
58517;DHT22;44308;50.810;0.284;2022-09-27T09:22:36;18.70;99.90
58517;DHT22;44308;50.810;0.284;2022-09-27T09:27:50;19.20;99.90
58517;DHT22;44308;50.810;0.284;2022-09-27T09:30:39;18.50;99.90
58517;DHT22;44308;50.810;0.284;2022-09-27T09:36:02;17.60;99.90
58517;DHT22;44308;50.810;0.284;2022-09-27T09:38:42;17.60;99.90
58517;DHT22;44308;50.810;0.284;2022-09-27T09:44:14;17.00;99.90
58517;DHT22;44308;50.810;0.284;2022-09-27T09:46:48;16.60;99.90
58517;DHT22;44308;50.810;0.284;2022-09-27T09:52:04;16.30;99.90
58517;DHT22;44308;50.810;0.284;2022-09-27T09:54:47;15.90;99.90
58517;DHT22;44308;50.810;0.284;2022-09-27T09:59:56;16.00;99.90
58517;DHT22;44308;50.810;0.284;2022-09-27T10:02:41;16.80;99.90
58517;DHT22;44308;50.810;0.284;2022-09-27T10:05:20;17.10;99.90
58517;DHT22;44308;50.810;0.284;2022-09-27T10:07:47;17.70;99.90
58517;DHT22;44308;50.810;0.284;2022-09-27T10:10:16;18.00;99.90
58517;DHT22;44308;50.810;0.284;2022-09-27T10:12:44;18.10;99.90
58517;DHT22;44308;50.810;0.284;2022-09-27T10:15:17;18.20;99.90
58517;DHT22;44308;50.810;0.284;2022-09-27T10:17:49;18.30;99.90
58517;DHT22;44308;50.810;0.284;2022-09-27T10:23:32;18.20;99.90
58517;DHT22;44308;50.810;0.284;2022-09-27T10:26:00;18.30;99.90
58517;DHT22;44308;50.810;0.284;2022-09-27T10:31:08;18.80;99.90
58517;DHT22;44308;50.810;0.284;2022-09-27T10:33:38;18.90;99.90
58517;DHT22;44308;50.810;0.284;2022-09-27T10:36:28;18.60;99.90
58517;DHT22;44308;50.810;0.284;2022-09-27T10:38:56;18.50;99.90
58517;DHT22;44308;50.810;0.284;2022-09-27T10:41:33;18.20;99.90
58517;DHT22;44308;50.810;0.284;2022-09-27T10:44:19;18.00;99.90
58517;DHT22;44308;50.810;0.284;2022-09-27T10:46:50;17.90;99.90
58517;DHT22;44308;50.810;0.284;2022-09-27T10:49:33;17.60;99.90
58517;DHT22;44308;50.810;0.284;2022-09-27T10:52:06;17.20;99.90
58517;DHT22;44308;50.810;0.284;2022-09-27T10:54:35;16.80;99.90
58517;DHT22;44308;50.810;0.284;2022-09-27T10:57:17;16.50;99.90
58517;DHT22;44308;50.810;0.284;2022-09-27T10:59:48;16.50;99.90
58517;DHT22;44308;50.810;0.284;2022-09-27T11:05:11;16.70;99.90
58517;DHT22;44308;50.810;0.284;2022-09-27T11:07:51;16.60;99.90
58517;DHT22;44308;50.810;0.284;2022-09-27T11:10:27;16.50;99.90
58517;DHT22;44308;50.810;0.284;2022-09-27T11:15:50;16.40;99.90
58517;DHT22;44308;50.810;0.284;2022-09-27T11:21:41;16.00;99.90
58517;DHT22;44308;50.810;0.284;2022-09-27T11:30:11;15.60;99.90
58517;DHT22;44308;50.810;0.284;2022-09-27T11:41:45;17.00;99.90
58517;DHT22;44308;50.810;0.284;2022-09-27T11:44:42;17.60;99.90
58517;DHT22;44308;50.810;0.284;2022-09-27T11:47:16;18.00;99.90
58517;DHT22;44308;50.810;0.284;2022-09-27T11:49:59;18.40;99.90
58517;DHT22;44308;50.810;0.284;2022-09-27T11:52:55;18.30;99.90
58517;DHT22;44308;50.810;0.284;2022-09-27T11:55:43;18.20;99.90
58517;DHT22;44308;50.810;0.284;2022-09-27T11:58:29;17.90;99.90
58517;DHT22;44308;50.810;0.284;2022-09-27T12:06:46;17.30;99.90
58517;DHT22;44308;50.810;0.284;2022-09-27T12:09:29;17.70;99.90
58517;DHT22;44308;50.810;0.284;2022-09-27T12:12:09;17.60;99.90
58517;DHT22;44308;50.810;0.284;2022-09-27T12:14:42;17.60;99.90
58517;DHT22;44308;50.810;0.284;2022-09-27T12:17:17;17.90;99.90
58517;DHT22;44308;50.810;0.284;2022-09-27T12:19:55;18.20;99.90
58517;DHT22;44308;50.810;0.284;2022-09-27T12:22:53;18.20;99.90
58517;DHT22;44308;50.810;0.284;2022-09-27T12:25:22;18.20;99.90
58517;DHT22;44308;50.810;0.284;2022-09-27T12:30:21;18.10;99.90
58517;DHT22;44308;50.810;0.284;2022-09-27T12:32:56;18.20;99.90
58517;DHT22;44308;50.810;0.284;2022-09-27T12:35:43;18.10;99.90
58517;DHT22;44308;50.810;0.284;2022-09-27T12:38:40;18.10;99.90
58517;DHT22;44308;50.810;0.284;2022-09-27T12:41:10;18.20;99.90
58517;DHT22;44308;50.810;0.284;2022-09-27T12:43:46;18.40;99.90
58517;DHT22;44308;50.810;0.284;2022-09-27T12:46:35;18.60;99.90
58517;DHT22;44308;50.810;0.284;2022-09-27T12:49:06;18.10;99.90
58517;DHT22;44308;50.810;0.284;2022-09-27T12:54:44;18.20;99.90
58517;DHT22;44308;50.810;0.284;2022-09-27T12:57:26;18.50;99.90
58517;DHT22;44308;50.810;0.284;2022-09-27T13:13:41;18.90;99.90
58517;DHT22;44308;50.810;0.284;2022-09-27T13:16:08;18.80;99.90
58517;DHT22;44308;50.810;0.284;2022-09-27T13:21:02;18.50;99.90
58517;DHT22;44308;50.810;0.284;2022-09-27T13:30:55;17.40;99.90
58517;DHT22;44308;50.810;0.284;2022-09-27T13:44:25;16.40;99.90
58517;DHT22;44308;50.810;0.284;2022-09-27T13:46:56;16.20;99.90
58517;DHT22;44308;50.810;0.284;2022-09-27T13:49:39;16.20;99.90
58517;DHT22;44308;50.810;0.284;2022-09-27T13:52:39;16.20;99.90
58517;DHT22;44308;50.810;0.284;2022-09-27T13:55:40;16.10;99.90
58517;DHT22;44308;50.810;0.284;2022-09-27T14:00:49;16.00;99.90
58517;DHT22;44308;50.810;0.284;2022-09-27T14:03:27;16.10;99.90
58517;DHT22;44308;50.810;0.284;2022-09-27T14:05:57;16.40;99.90
58517;DHT22;44308;50.810;0.284;2022-09-27T14:08:33;16.70;99.90
58517;DHT22;44308;50.810;0.284;2022-09-27T14:11:02;16.80;99.90
58517;DHT22;44308;50.810;0.284;2022-09-27T14:13:31;16.80;99.90
58517;DHT22;44308;50.810;0.284;2022-09-27T14:16:01;17.20;99.90
58517;DHT22;44308;50.810;0.284;2022-09-27T14:18:28;17.20;99.90
58517;DHT22;44308;50.810;0.284;2022-09-27T14:21:10;17.10;99.90
58517;DHT22;44308;50.810;0.284;2022-09-27T14:23:36;17.20;99.90
58517;DHT22;44308;50.810;0.284;2022-09-27T14:26:03;17.10;99.90
58517;DHT22;44308;50.810;0.284;2022-09-27T14:28:30;17.00;99.90
58517;DHT22;44308;50.810;0.284;2022-09-27T14:31:16;16.80;99.90
58517;DHT22;44308;50.810;0.284;2022-09-27T14:33:43;16.90;99.90
58517;DHT22;44308;50.810;0.284;2022-09-27T14:39:23;16.70;99.90
58517;DHT22;44308;50.810;0.284;2022-09-27T14:41:50;16.90;99.90
58517;DHT22;44308;50.810;0.284;2022-09-27T14:44:19;16.70;99.90
58517;DHT22;44308;50.810;0.284;2022-09-27T14:46:46;16.40;99.90
58517;DHT22;44308;50.810;0.284;2022-09-27T14:49:20;16.20;99.90
58517;DHT22;44308;50.810;0.284;2022-09-27T14:51:55;16.10;99.90
58517;DHT22;44308;50.810;0.284;2022-09-27T14:54:25;16.20;99.90
58517;DHT22;44308;50.810;0.284;2022-09-27T14:56:52;16.10;99.90
58517;DHT22;44308;50.810;0.284;2022-09-27T14:59:33;16.10;99.90
58517;DHT22;44308;50.810;0.284;2022-09-27T15:02:07;16.00;99.90
58517;DHT22;44308;50.810;0.284;2022-09-27T15:04:43;15.90;99.90
58517;DHT22;44308;50.810;0.284;2022-09-27T15:07:11;16.00;99.90
58517;DHT22;44308;50.810;0.284;2022-09-27T15:09:39;16.00;99.90
58517;DHT22;44308;50.810;0.284;2022-09-27T15:12:05;16.10;99.90
58517;DHT22;44308;50.810;0.284;2022-09-27T15:14:34;15.80;99.90
58517;DHT22;44308;50.810;0.284;2022-09-27T15:17:12;15.60;99.90
58517;DHT22;44308;50.810;0.284;2022-09-27T15:19:38;15.30;99.90
58517;DHT22;44308;50.810;0.284;2022-09-27T15:22:35;15.20;99.90
58517;DHT22;44308;50.810;0.284;2022-09-27T15:25:22;15.10;99.90
58517;DHT22;44308;50.810;0.284;2022-09-27T15:27:53;15.20;99.90
58517;DHT22;44308;50.810;0.284;2022-09-27T15:30:25;15.10;99.90
58517;DHT22;44308;50.810;0.284;2022-09-27T15:32:52;15.10;99.90
58517;DHT22;44308;50.810;0.284;2022-09-27T15:35:25;15.20;99.90
58517;DHT22;44308;50.810;0.284;2022-09-27T15:37:52;15.20;99.90
58517;DHT22;44308;50.810;0.284;2022-09-27T15:45:56;15.20;99.90
58517;DHT22;44308;50.810;0.284;2022-09-27T15:48:25;15.20;99.90
58517;DHT22;44308;50.810;0.284;2022-09-27T15:50:51;15.40;99.90
58517;DHT22;44308;50.810;0.284;2022-09-27T15:56:02;15.10;99.90
58517;DHT22;44308;50.810;0.284;2022-09-27T15:58:28;15.00;99.90
58517;DHT22;44308;50.810;0.284;2022-09-27T16:00:57;14.90;99.90
58517;DHT22;44308;50.810;0.284;2022-09-27T16:03:25;14.80;99.90
58517;DHT22;44308;50.810;0.284;2022-09-27T16:05:52;14.70;99.90
58517;DHT22;44308;50.810;0.284;2022-09-27T16:08:19;14.60;99.90
58517;DHT22;44308;50.810;0.284;2022-09-27T16:10:49;14.60;99.90
58517;DHT22;44308;50.810;0.284;2022-09-27T16:13:15;14.60;99.90
58517;DHT22;44308;50.810;0.284;2022-09-27T16:15:41;14.70;99.90
58517;DHT22;44308;50.810;0.284;2022-09-27T16:18:08;14.70;99.90
58517;DHT22;44308;50.810;0.284;2022-09-27T16:20:33;14.70;99.90
58517;DHT22;44308;50.810;0.284;2022-09-27T16:22:59;14.70;99.90
58517;DHT22;44308;50.810;0.284;2022-09-27T16:25:25;14.60;99.90
58517;DHT22;44308;50.810;0.284;2022-09-27T16:27:50;14.50;99.90
58517;DHT22;44308;50.810;0.284;2022-09-27T16:30:19;14.50;99.90
58517;DHT22;44308;50.810;0.284;2022-09-27T16:32:46;14.50;99.90
58517;DHT22;44308;50.810;0.284;2022-09-27T16:35:13;14.40;99.90
58517;DHT22;44308;50.810;0.284;2022-09-27T16:37:40;14.40;99.90
58517;DHT22;44308;50.810;0.284;2022-09-27T16:40:07;14.30;99.90
58517;DHT22;44308;50.810;0.284;2022-09-27T16:42:34;14.20;99.90
58517;DHT22;44308;50.810;0.284;2022-09-27T16:45:00;14.00;99.90
58517;DHT22;44308;50.810;0.284;2022-09-27T16:47:27;13.90;99.90
58517;DHT22;44308;50.810;0.284;2022-09-27T16:49:53;13.80;99.90
58517;DHT22;44308;50.810;0.284;2022-09-27T16:52:37;13.80;99.90
58517;DHT22;44308;50.810;0.284;2022-09-27T16:55:04;13.70;99.90
58517;DHT22;44308;50.810;0.284;2022-09-27T16:57:32;13.70;99.90
58517;DHT22;44308;50.810;0.284;2022-09-27T16:59:59;13.60;99.90
58517;DHT22;44308;50.810;0.284;2022-09-27T17:02:26;13.50;99.90
58517;DHT22;44308;50.810;0.284;2022-09-27T17:04:52;13.40;99.90
58517;DHT22;44308;50.810;0.284;2022-09-27T17:07:19;13.40;99.90
58517;DHT22;44308;50.810;0.284;2022-09-27T17:09:45;13.30;99.90
58517;DHT22;44308;50.810;0.284;2022-09-27T17:12:12;13.30;99.90
58517;DHT22;44308;50.810;0.284;2022-09-27T17:14:38;13.20;99.90
58517;DHT22;44308;50.810;0.284;2022-09-27T17:17:04;13.30;99.90
58517;DHT22;44308;50.810;0.284;2022-09-27T17:19:30;13.20;99.90
58517;DHT22;44308;50.810;0.284;2022-09-27T17:21:57;13.30;99.90
58517;DHT22;44308;50.810;0.284;2022-09-27T17:24:23;13.20;99.90
58517;DHT22;44308;50.810;0.284;2022-09-27T17:26:49;13.20;99.90
58517;DHT22;44308;50.810;0.284;2022-09-27T17:29:15;13.10;99.90
58517;DHT22;44308;50.810;0.284;2022-09-27T17:31:41;13.00;99.90
58517;DHT22;44308;50.810;0.284;2022-09-27T17:34:09;12.90;99.90
58517;DHT22;44308;50.810;0.284;2022-09-27T17:36:37;12.80;99.90
58517;DHT22;44308;50.810;0.284;2022-09-27T17:39:07;12.70;99.90
58517;DHT22;44308;50.810;0.284;2022-09-27T17:41:34;12.60;99.90
58517;DHT22;44308;50.810;0.284;2022-09-27T17:44:01;12.50;99.90
58517;DHT22;44308;50.810;0.284;2022-09-27T17:46:29;12.40;99.90
58517;DHT22;44308;50.810;0.284;2022-09-27T17:48:55;12.40;99.90
58517;DHT22;44308;50.810;0.284;2022-09-27T17:51:53;12.30;99.90
58517;DHT22;44308;50.810;0.284;2022-09-27T17:54:39;12.20;99.90
58517;DHT22;44308;50.810;0.284;2022-09-27T17:57:05;12.10;99.90
58517;DHT22;44308;50.810;0.284;2022-09-27T17:59:31;12.00;99.90
58517;DHT22;44308;50.810;0.284;2022-09-27T18:01:57;11.90;99.90
58517;DHT22;44308;50.810;0.284;2022-09-27T18:04:24;11.90;99.90
58517;DHT22;44308;50.810;0.284;2022-09-27T18:06:50;11.80;99.90
58517;DHT22;44308;50.810;0.284;2022-09-27T18:09:16;11.80;99.90
58517;DHT22;44308;50.810;0.284;2022-09-27T18:11:42;11.80;99.90
58517;DHT22;44308;50.810;0.284;2022-09-27T18:14:08;11.70;99.90
58517;DHT22;44308;50.810;0.284;2022-09-27T18:16:38;11.80;99.90
58517;DHT22;44308;50.810;0.284;2022-09-27T18:19:08;11.80;99.90
58517;DHT22;44308;50.810;0.284;2022-09-27T18:21:34;11.90;99.90
58517;DHT22;44308;50.810;0.284;2022-09-27T18:24:01;11.90;99.90
58517;DHT22;44308;50.810;0.284;2022-09-27T18:26:31;11.90;99.90
58517;DHT22;44308;50.810;0.284;2022-09-27T18:29:06;11.90;99.90
58517;DHT22;44308;50.810;0.284;2022-09-27T18:31:32;12.00;99.90
58517;DHT22;44308;50.810;0.284;2022-09-27T18:33:57;11.90;99.90
58517;DHT22;44308;50.810;0.284;2022-09-27T18:36:25;11.90;99.90
58517;DHT22;44308;50.810;0.284;2022-09-27T18:38:59;11.90;99.90
58517;DHT22;44308;50.810;0.284;2022-09-27T18:41:28;11.80;99.90
58517;DHT22;44308;50.810;0.284;2022-09-27T18:43:56;11.80;99.90
58517;DHT22;44308;50.810;0.284;2022-09-27T18:46:25;11.70;99.90
58517;DHT22;44308;50.810;0.284;2022-09-27T18:48:51;11.70;99.90
58517;DHT22;44308;50.810;0.284;2022-09-27T18:51:22;11.70;99.90
58517;DHT22;44308;50.810;0.284;2022-09-27T18:56:21;11.60;99.90
58517;DHT22;44308;50.810;0.284;2022-09-27T18:58:47;11.60;99.90